General La Madrid, Argentina
Current Conditions -  °F | °C
As of 9:00 AM on Monday 22 Dec 2014 (Local Time) from SAZM Reporting Station
Scattered Clouds Scattered Clouds  
Wind Chill: 61°   Ceiling: Unl
Heat Index: 61°   Visibility: 6mi
Dew Point: 41°   Wind: 12mph
Humidity: 48%   Direction: 250°WSW
Pressure: 30"   Gusts: NA
Location:  37.27°S, 61.28°W
Report Text: SAZM 221200Z 25010KT 9999 SCT025 FEW035CB16/05 Q1016
Loading
Personal Weather Stations






























Interactive Weather Map New forecast layout! Learn more

10-Day Weather Forecast

Advertisements
Track Severe Weather on mobile